Terminal Aerodrome Forecast
Issued by NWS Sioux Falls, SD

Home | Current Version | Previous Version | Text Only | Print | Product List | Glossary On
Versions: 1 2 3 4 5 6 7 8 9 10 11 12 13 14 15 16 17 18 19 20 21 22 23 24
000
FTUS43 KFSD 162320
TAFSUX
TAF
KSUX 162320Z 1700/1724 01005KT P6SM FEW045
     FM170800 00000KT P6SM BKN120
     FM171500 08005KT P6SM OVC045
     FM171700 12005KT P6SM BKN045
     FM172100 06005KT P6SM BKN060 PROB30 1721/1723 4SM TSRA BR
      OVC025CB=

USA.gov is the U.S. government's official web portal to all federal, state and local government web resources and services.